sensor_id;sensor_type;location;lat;lon;timestamp;P1;durP1;ratioP1;P2;durP2;ratioP2
7171;SDS011;3627;46.544;14.944;2022-11-04T00:01:52;9.35;;;6.03;;
7171;SDS011;3627;46.544;14.944;2022-11-04T00:04:19;10.80;;;6.72;;
7171;SDS011;3627;46.544;14.944;2022-11-04T00:06:45;10.90;;;6.93;;
7171;SDS011;3627;46.544;14.944;2022-11-04T00:09:14;12.68;;;6.78;;
7171;SDS011;3627;46.544;14.944;2022-11-04T00:11:41;8.63;;;6.30;;
7171;SDS011;3627;46.544;14.944;2022-11-04T00:14:24;8.00;;;6.10;;
7171;SDS011;3627;46.544;14.944;2022-11-04T00:16:53;9.57;;;5.40;;
7171;SDS011;3627;46.544;14.944;2022-11-04T00:19:37;11.48;;;6.43;;
7171;SDS011;3627;46.544;14.944;2022-11-04T00:22:20;9.45;;;5.88;;
7171;SDS011;3627;46.544;14.944;2022-11-04T00:25:07;10.48;;;6.72;;
7171;SDS011;3627;46.544;14.944;2022-11-04T00:27:51;10.68;;;6.32;;
7171;SDS011;3627;46.544;14.944;2022-11-04T00:30:35;10.18;;;6.60;;
7171;SDS011;3627;46.544;14.944;2022-11-04T00:33:01;9.00;;;5.60;;
7171;SDS011;3627;46.544;14.944;2022-11-04T00:35:49;9.43;;;6.10;;
7171;SDS011;3627;46.544;14.944;2022-11-04T00:38:15;10.45;;;5.95;;
7171;SDS011;3627;46.544;14.944;2022-11-04T00:40:43;9.63;;;6.47;;
7171;SDS011;3627;46.544;14.944;2022-11-04T00:43:09;9.82;;;5.90;;
7171;SDS011;3627;46.544;14.944;2022-11-04T00:45:36;6.90;;;5.43;;
7171;SDS011;3627;46.544;14.944;2022-11-04T00:48:02;7.60;;;5.35;;
7171;SDS011;3627;46.544;14.944;2022-11-04T00:50:29;6.93;;;5.85;;
7171;SDS011;3627;46.544;14.944;2022-11-04T00:52:57;7.25;;;4.50;;
7171;SDS011;3627;46.544;14.944;2022-11-04T00:55:23;9.90;;;6.15;;
7171;SDS011;3627;46.544;14.944;2022-11-04T00:57:51;9.85;;;6.68;;
7171;SDS011;3627;46.544;14.944;2022-11-04T01:00:17;10.45;;;6.97;;
7171;SDS011;3627;46.544;14.944;2022-11-04T01:02:44;12.35;;;7.10;;
7171;SDS011;3627;46.544;14.944;2022-11-04T01:05:10;11.95;;;6.60;;
7171;SDS011;3627;46.544;14.944;2022-11-04T01:07:37;8.88;;;6.32;;
7171;SDS011;3627;46.544;14.944;2022-11-04T01:10:04;10.88;;;5.45;;
7171;SDS011;3627;46.544;14.944;2022-11-04T01:12:30;8.35;;;6.00;;
7171;SDS011;3627;46.544;14.944;2022-11-04T01:14:58;7.30;;;5.00;;
7171;SDS011;3627;46.544;14.944;2022-11-04T01:17:25;8.90;;;5.50;;
7171;SDS011;3627;46.544;14.944;2022-11-04T01:19:51;8.43;;;4.97;;
7171;SDS011;3627;46.544;14.944;2022-11-04T01:22:17;5.80;;;4.53;;
7171;SDS011;3627;46.544;14.944;2022-11-04T01:24:44;8.45;;;5.22;;
7171;SDS011;3627;46.544;14.944;2022-11-04T01:27:10;8.40;;;5.28;;
7171;SDS011;3627;46.544;14.944;2022-11-04T01:29:37;13.15;;;5.82;;
7171;SDS011;3627;46.544;14.944;2022-11-04T01:32:05;8.57;;;5.57;;
7171;SDS011;3627;46.544;14.944;2022-11-04T01:34:31;11.13;;;5.80;;
7171;SDS011;3627;46.544;14.944;2022-11-04T01:36:58;8.55;;;6.05;;
7171;SDS011;3627;46.544;14.944;2022-11-04T01:39:24;9.50;;;6.70;;
7171;SDS011;3627;46.544;14.944;2022-11-04T01:41:50;11.32;;;7.03;;
7171;SDS011;3627;46.544;14.944;2022-11-04T01:47:02;6.88;;;5.60;;
7171;SDS011;3627;46.544;14.944;2022-11-04T01:49:31;8.90;;;5.45;;
7171;SDS011;3627;46.544;14.944;2022-11-04T01:52:00;7.93;;;5.60;;
7171;SDS011;3627;46.544;14.944;2022-11-04T01:54:27;6.53;;;5.18;;
7171;SDS011;3627;46.544;14.944;2022-11-04T01:56:54;6.38;;;4.80;;
7171;SDS011;3627;46.544;14.944;2022-11-04T01:59:23;6.78;;;4.88;;
7171;SDS011;3627;46.544;14.944;2022-11-04T02:01:51;8.70;;;4.97;;
7171;SDS011;3627;46.544;14.944;2022-11-04T02:04:18;8.13;;;5.03;;
7171;SDS011;3627;46.544;14.944;2022-11-04T02:06:53;5.82;;;4.53;;
7171;SDS011;3627;46.544;14.944;2022-11-04T02:09:20;8.98;;;5.93;;
7171;SDS011;3627;46.544;14.944;2022-11-04T02:11:47;7.75;;;5.50;;
7171;SDS011;3627;46.544;14.944;2022-11-04T02:14:31;8.70;;;4.93;;
7171;SDS011;3627;46.544;14.944;2022-11-04T02:17:00;11.18;;;6.80;;
7171;SDS011;3627;46.544;14.944;2022-11-04T02:19:35;7.00;;;4.82;;
7171;SDS011;3627;46.544;14.944;2022-11-04T02:22:12;7.78;;;4.80;;
7171;SDS011;3627;46.544;14.944;2022-11-04T02:24:56;6.18;;;4.68;;
7171;SDS011;3627;46.544;14.944;2022-11-04T02:27:29;6.70;;;5.15;;
7171;SDS011;3627;46.544;14.944;2022-11-04T02:30:04;9.00;;;6.20;;
7171;SDS011;3627;46.544;14.944;2022-11-04T02:32:44;6.38;;;5.07;;
7171;SDS011;3627;46.544;14.944;2022-11-04T02:35:15;9.00;;;5.07;;
7171;SDS011;3627;46.544;14.944;2022-11-04T02:37:46;5.65;;;4.45;;
7171;SDS011;3627;46.544;14.944;2022-11-04T02:40:17;8.77;;;5.00;;
7171;SDS011;3627;46.544;14.944;2022-11-04T02:42:49;8.43;;;5.82;;
7171;SDS011;3627;46.544;14.944;2022-11-04T02:45:19;8.00;;;4.82;;
7171;SDS011;3627;46.544;14.944;2022-11-04T02:47:48;7.20;;;4.65;;
7171;SDS011;3627;46.544;14.944;2022-11-04T02:50:16;7.88;;;4.85;;
7171;SDS011;3627;46.544;14.944;2022-11-04T02:52:46;6.72;;;4.82;;
7171;SDS011;3627;46.544;14.944;2022-11-04T02:55:15;7.55;;;5.30;;
7171;SDS011;3627;46.544;14.944;2022-11-04T02:57:43;7.13;;;5.65;;
7171;SDS011;3627;46.544;14.944;2022-11-04T03:00:12;8.52;;;4.78;;
7171;SDS011;3627;46.544;14.944;2022-11-04T03:02:40;5.28;;;4.53;;
7171;SDS011;3627;46.544;14.944;2022-11-04T03:05:10;7.57;;;4.90;;
7171;SDS011;3627;46.544;14.944;2022-11-04T03:07:38;9.35;;;4.28;;
7171;SDS011;3627;46.544;14.944;2022-11-04T03:10:07;5.57;;;3.88;;
7171;SDS011;3627;46.544;14.944;2022-11-04T03:12:36;7.55;;;4.70;;
7171;SDS011;3627;46.544;14.944;2022-11-04T03:15:04;8.20;;;4.93;;
7171;SDS011;3627;46.544;14.944;2022-11-04T03:17:33;6.95;;;4.90;;
7171;SDS011;3627;46.544;14.944;2022-11-04T03:20:04;7.18;;;5.43;;
7171;SDS011;3627;46.544;14.944;2022-11-04T03:22:32;10.93;;;6.00;;
7171;SDS011;3627;46.544;14.944;2022-11-04T03:25:00;5.93;;;4.60;;
7171;SDS011;3627;46.544;14.944;2022-11-04T03:27:29;5.55;;;4.55;;
7171;SDS011;3627;46.544;14.944;2022-11-04T03:29:58;8.13;;;5.03;;
7171;SDS011;3627;46.544;14.944;2022-11-04T03:32:27;7.32;;;4.68;;
7171;SDS011;3627;46.544;14.944;2022-11-04T03:34:56;5.97;;;4.55;;
7171;SDS011;3627;46.544;14.944;2022-11-04T03:37:24;6.03;;;4.65;;
7171;SDS011;3627;46.544;14.944;2022-11-04T03:39:50;6.72;;;4.38;;
7171;SDS011;3627;46.544;14.944;2022-11-04T03:42:17;6.32;;;4.80;;
7171;SDS011;3627;46.544;14.944;2022-11-04T03:44:47;5.95;;;4.78;;
7171;SDS011;3627;46.544;14.944;2022-11-04T03:47:14;8.18;;;5.40;;
7171;SDS011;3627;46.544;14.944;2022-11-04T03:49:41;6.75;;;5.25;;
7171;SDS011;3627;46.544;14.944;2022-11-04T03:52:08;7.95;;;4.93;;
7171;SDS011;3627;46.544;14.944;2022-11-04T03:54:36;6.97;;;4.85;;
7171;SDS011;3627;46.544;14.944;2022-11-04T03:57:06;6.78;;;4.20;;
7171;SDS011;3627;46.544;14.944;2022-11-04T03:59:41;5.47;;;4.75;;
7171;SDS011;3627;46.544;14.944;2022-11-04T04:02:12;5.50;;;4.95;;
7171;SDS011;3627;46.544;14.944;2022-11-04T04:04:41;7.53;;;5.47;;
7171;SDS011;3627;46.544;14.944;2022-11-04T04:07:11;6.22;;;4.95;;
7171;SDS011;3627;46.544;14.944;2022-11-04T04:09:41;5.50;;;4.38;;
7171;SDS011;3627;46.544;14.944;2022-11-04T04:12:10;10.07;;;4.53;;
7171;SDS011;3627;46.544;14.944;2022-11-04T04:14:39;6.57;;;4.40;;
7171;SDS011;3627;46.544;14.944;2022-11-04T04:17:10;4.88;;;4.25;;
7171;SDS011;3627;46.544;14.944;2022-11-04T04:19:38;6.90;;;4.57;;
7171;SDS011;3627;46.544;14.944;2022-11-04T04:22:08;7.97;;;4.50;;
7171;SDS011;3627;46.544;14.944;2022-11-04T04:24:36;6.03;;;4.13;;
7171;SDS011;3627;46.544;14.944;2022-11-04T04:27:24;6.20;;;4.93;;
7171;SDS011;3627;46.544;14.944;2022-11-04T04:29:56;7.45;;;4.85;;
7171;SDS011;3627;46.544;14.944;2022-11-04T04:32:24;7.33;;;5.27;;
7171;SDS011;3627;46.544;14.944;2022-11-04T04:34:51;6.97;;;5.30;;
7171;SDS011;3627;46.544;14.944;2022-11-04T04:37:38;6.43;;;5.13;;
7171;SDS011;3627;46.544;14.944;2022-11-04T04:40:07;7.30;;;5.38;;
7171;SDS011;3627;46.544;14.944;2022-11-04T04:42:53;7.72;;;5.32;;
7171;SDS011;3627;46.544;14.944;2022-11-04T04:45:38;6.70;;;4.95;;
7171;SDS011;3627;46.544;14.944;2022-11-04T04:48:07;8.02;;;5.82;;
7171;SDS011;3627;46.544;14.944;2022-11-04T04:50:34;6.18;;;4.75;;
7171;SDS011;3627;46.544;14.944;2022-11-04T04:53:02;7.70;;;5.05;;
7171;SDS011;3627;46.544;14.944;2022-11-04T04:55:28;5.78;;;4.40;;
7171;SDS011;3627;46.544;14.944;2022-11-04T04:57:57;5.47;;;4.63;;
7171;SDS011;3627;46.544;14.944;2022-11-04T05:00:23;7.72;;;5.05;;
7171;SDS011;3627;46.544;14.944;2022-11-04T05:02:50;5.45;;;4.68;;
7171;SDS011;3627;46.544;14.944;2022-11-04T05:05:17;6.13;;;4.57;;
7171;SDS011;3627;46.544;14.944;2022-11-04T05:07:43;9.23;;;5.05;;
7171;SDS011;3627;46.544;14.944;2022-11-04T05:10:11;8.57;;;5.65;;
7171;SDS011;3627;46.544;14.944;2022-11-04T05:12:38;7.32;;;4.68;;
7171;SDS011;3627;46.544;14.944;2022-11-04T05:15:23;13.85;;;7.90;;
7171;SDS011;3627;46.544;14.944;2022-11-04T05:17:52;11.30;;;7.28;;
7171;SDS011;3627;46.544;14.944;2022-11-04T05:20:18;10.35;;;5.93;;
7171;SDS011;3627;46.544;14.944;2022-11-04T05:22:45;10.52;;;5.05;;
7171;SDS011;3627;46.544;14.944;2022-11-04T05:25:11;6.97;;;5.05;;
7171;SDS011;3627;46.544;14.944;2022-11-04T05:27:37;6.53;;;5.47;;
7171;SDS011;3627;46.544;14.944;2022-11-04T05:30:04;7.15;;;4.57;;
7171;SDS011;3627;46.544;14.944;2022-11-04T05:32:32;7.88;;;5.00;;
7171;SDS011;3627;46.544;14.944;2022-11-04T05:34:59;6.93;;;5.18;;
7171;SDS011;3627;46.544;14.944;2022-11-04T05:37:25;9.23;;;5.75;;
7171;SDS011;3627;46.544;14.944;2022-11-04T05:39:52;10.07;;;5.75;;
7171;SDS011;3627;46.544;14.944;2022-11-04T05:42:18;8.13;;;5.13;;
7171;SDS011;3627;46.544;14.944;2022-11-04T05:44:44;10.40;;;4.68;;
7171;SDS011;3627;46.544;14.944;2022-11-04T05:47:11;7.05;;;4.10;;
7171;SDS011;3627;46.544;14.944;2022-11-04T05:49:39;6.22;;;4.18;;
7171;SDS011;3627;46.544;14.944;2022-11-04T05:52:05;5.07;;;4.25;;
7171;SDS011;3627;46.544;14.944;2022-11-04T05:54:32;10.13;;;4.70;;
7171;SDS011;3627;46.544;14.944;2022-11-04T05:56:58;7.22;;;4.75;;
7171;SDS011;3627;46.544;14.944;2022-11-04T05:59:24;6.55;;;4.82;;
7171;SDS011;3627;46.544;14.944;2022-11-04T06:01:51;5.25;;;4.53;;
7171;SDS011;3627;46.544;14.944;2022-11-04T06:04:17;6.75;;;4.70;;
7171;SDS011;3627;46.544;14.944;2022-11-04T06:06:45;7.20;;;4.35;;
7171;SDS011;3627;46.544;14.944;2022-11-04T06:09:11;6.75;;;4.22;;
7171;SDS011;3627;46.544;14.944;2022-11-04T06:11:38;5.43;;;4.28;;
7171;SDS011;3627;46.544;14.944;2022-11-04T06:14:04;4.85;;;4.05;;
7171;SDS011;3627;46.544;14.944;2022-11-04T06:16:31;5.72;;;4.38;;
7171;SDS011;3627;46.544;14.944;2022-11-04T06:18:57;5.35;;;4.10;;
7171;SDS011;3627;46.544;14.944;2022-11-04T06:21:24;5.63;;;3.70;;
7171;SDS011;3627;46.544;14.944;2022-11-04T06:23:53;5.22;;;4.72;;
7171;SDS011;3627;46.544;14.944;2022-11-04T06:26:20;12.13;;;4.75;;
7171;SDS011;3627;46.544;14.944;2022-11-04T06:28:47;9.02;;;5.47;;
7171;SDS011;3627;46.544;14.944;2022-11-04T06:31:13;9.73;;;5.57;;
7171;SDS011;3627;46.544;14.944;2022-11-04T06:33:40;7.07;;;3.80;;
7171;SDS011;3627;46.544;14.944;2022-11-04T06:36:07;6.35;;;4.50;;
7171;SDS011;3627;46.544;14.944;2022-11-04T06:38:34;4.40;;;3.65;;
7171;SDS011;3627;46.544;14.944;2022-11-04T06:41:02;4.68;;;3.95;;
7171;SDS011;3627;46.544;14.944;2022-11-04T06:43:29;5.40;;;3.70;;
7171;SDS011;3627;46.544;14.944;2022-11-04T06:45:55;4.18;;;3.55;;
7171;SDS011;3627;46.544;14.944;2022-11-04T06:48:22;4.78;;;3.45;;
7171;SDS011;3627;46.544;14.944;2022-11-04T06:50:49;4.43;;;3.45;;
7171;SDS011;3627;46.544;14.944;2022-11-04T06:53:15;4.88;;;3.75;;
7171;SDS011;3627;46.544;14.944;2022-11-04T06:55:42;4.45;;;3.97;;
7171;SDS011;3627;46.544;14.944;2022-11-04T06:58:09;9.27;;;3.92;;
7171;SDS011;3627;46.544;14.944;2022-11-04T07:00:36;6.18;;;3.70;;
7171;SDS011;3627;46.544;14.944;2022-11-04T07:03:02;4.93;;;3.25;;
7171;SDS011;3627;46.544;14.944;2022-11-04T07:05:31;5.07;;;3.20;;
7171;SDS011;3627;46.544;14.944;2022-11-04T07:07:57;4.35;;;3.83;;
7171;SDS011;3627;46.544;14.944;2022-11-04T07:10:24;6.45;;;3.17;;
7171;SDS011;3627;46.544;14.944;2022-11-04T07:12:50;6.20;;;3.85;;
7171;SDS011;3627;46.544;14.944;2022-11-04T07:15:20;4.43;;;3.50;;
7171;SDS011;3627;46.544;14.944;2022-11-04T07:17:46;6.00;;;3.58;;
7171;SDS011;3627;46.544;14.944;2022-11-04T07:20:12;5.88;;;3.90;;
7171;SDS011;3627;46.544;14.944;2022-11-04T07:22:39;5.20;;;3.90;;
7171;SDS011;3627;46.544;14.944;2022-11-04T07:25:05;8.05;;;4.60;;
7171;SDS011;3627;46.544;14.944;2022-11-04T07:27:32;8.73;;;4.15;;
7171;SDS011;3627;46.544;14.944;2022-11-04T07:29:58;5.60;;;4.10;;
7171;SDS011;3627;46.544;14.944;2022-11-04T07:32:26;6.65;;;3.70;;
7171;SDS011;3627;46.544;14.944;2022-11-04T07:34:53;7.60;;;3.92;;
7171;SDS011;3627;46.544;14.944;2022-11-04T07:37:19;5.55;;;3.03;;
7171;SDS011;3627;46.544;14.944;2022-11-04T07:39:45;5.50;;;3.75;;
7171;SDS011;3627;46.544;14.944;2022-11-04T07:42:12;5.88;;;3.17;;
7171;SDS011;3627;46.544;14.944;2022-11-04T07:44:38;3.92;;;3.35;;
7171;SDS011;3627;46.544;14.944;2022-11-04T07:47:05;3.72;;;2.97;;
7171;SDS011;3627;46.544;14.944;2022-11-04T07:49:33;5.30;;;3.70;;
7171;SDS011;3627;46.544;14.944;2022-11-04T07:51:59;4.07;;;2.95;;
7171;SDS011;3627;46.544;14.944;2022-11-04T07:54:25;5.55;;;3.15;;
7171;SDS011;3627;46.544;14.944;2022-11-04T07:56:52;4.78;;;3.42;;
7171;SDS011;3627;46.544;14.944;2022-11-04T07:59:19;4.63;;;3.50;;
7171;SDS011;3627;46.544;14.944;2022-11-04T08:01:45;3.28;;;2.97;;
7171;SDS011;3627;46.544;14.944;2022-11-04T08:04:12;4.40;;;3.75;;
7171;SDS011;3627;46.544;14.944;2022-11-04T08:06:39;3.33;;;2.90;;
7171;SDS011;3627;46.544;14.944;2022-11-04T08:09:06;5.10;;;2.92;;
7171;SDS011;3627;46.544;14.944;2022-11-04T08:11:33;8.70;;;4.70;;
7171;SDS011;3627;46.544;14.944;2022-11-04T08:14:01;4.03;;;3.63;;
7171;SDS011;3627;46.544;14.944;2022-11-04T08:16:27;4.88;;;3.50;;
7171;SDS011;3627;46.544;14.944;2022-11-04T08:18:54;5.97;;;4.43;;
7171;SDS011;3627;46.544;14.944;2022-11-04T08:21:26;5.47;;;4.10;;
7171;SDS011;3627;46.544;14.944;2022-11-04T08:23:53;6.55;;;4.57;;
7171;SDS011;3627;46.544;14.944;2022-11-04T08:26:20;4.45;;;3.92;;
7171;SDS011;3627;46.544;14.944;2022-11-04T08:28:47;8.18;;;5.40;;
7171;SDS011;3627;46.544;14.944;2022-11-04T08:31:15;5.93;;;4.47;;
7171;SDS011;3627;46.544;14.944;2022-11-04T08:33:42;4.97;;;3.78;;
7171;SDS011;3627;46.544;14.944;2022-11-04T08:36:09;11.48;;;4.43;;
7171;SDS011;3627;46.544;14.944;2022-11-04T08:38:36;7.47;;;3.88;;
7171;SDS011;3627;46.544;14.944;2022-11-04T08:41:05;6.15;;;3.17;;
7171;SDS011;3627;46.544;14.944;2022-11-04T08:43:31;5.32;;;3.72;;
7171;SDS011;3627;46.544;14.944;2022-11-04T08:45:59;5.97;;;3.20;;
7171;SDS011;3627;46.544;14.944;2022-11-04T08:48:25;4.40;;;3.47;;
7171;SDS011;3627;46.544;14.944;2022-11-04T08:50:52;6.75;;;3.38;;
7171;SDS011;3627;46.544;14.944;2022-11-04T08:53:19;4.95;;;3.75;;
7171;SDS011;3627;46.544;14.944;2022-11-04T08:55:46;6.22;;;4.05;;
7171;SDS011;3627;46.544;14.944;2022-11-04T08:58:13;7.35;;;3.80;;
7171;SDS011;3627;46.544;14.944;2022-11-04T09:00:40;10.00;;;5.32;;
7171;SDS011;3627;46.544;14.944;2022-11-04T09:03:06;4.13;;;3.25;;
7171;SDS011;3627;46.544;14.944;2022-11-04T09:05:35;7.38;;;3.95;;
7171;SDS011;3627;46.544;14.944;2022-11-04T09:08:05;6.97;;;5.10;;
7171;SDS011;3627;46.544;14.944;2022-11-04T09:10:31;9.85;;;5.65;;
7171;SDS011;3627;46.544;14.944;2022-11-04T09:12:58;6.60;;;4.03;;
7171;SDS011;3627;46.544;14.944;2022-11-04T09:15:26;7.18;;;3.80;;
7171;SDS011;3627;46.544;14.944;2022-11-04T09:17:52;5.25;;;3.55;;
7171;SDS011;3627;46.544;14.944;2022-11-04T09:20:19;5.32;;;3.22;;
7171;SDS011;3627;46.544;14.944;2022-11-04T09:22:45;4.78;;;3.22;;
7171;SDS011;3627;46.544;14.944;2022-11-04T09:25:14;7.85;;;3.38;;
7171;SDS011;3627;46.544;14.944;2022-11-04T09:27:40;7.88;;;5.00;;
7171;SDS011;3627;46.544;14.944;2022-11-04T09:30:07;10.15;;;5.63;;
7171;SDS011;3627;46.544;14.944;2022-11-04T09:32:35;4.32;;;3.30;;
7171;SDS011;3627;46.544;14.944;2022-11-04T09:35:02;4.50;;;2.95;;
7171;SDS011;3627;46.544;14.944;2022-11-04T09:37:29;4.97;;;3.90;;
7171;SDS011;3627;46.544;14.944;2022-11-04T09:39:55;3.65;;;3.15;;
7171;SDS011;3627;46.544;14.944;2022-11-04T09:42:31;4.68;;;3.08;;
7171;SDS011;3627;46.544;14.944;2022-11-04T09:45:01;4.50;;;3.75;;
7171;SDS011;3627;46.544;14.944;2022-11-04T09:47:28;4.78;;;3.30;;
7171;SDS011;3627;46.544;14.944;2022-11-04T09:49:57;4.32;;;2.85;;
7171;SDS011;3627;46.544;14.944;2022-11-04T09:52:24;4.60;;;2.78;;
7171;SDS011;3627;46.544;14.944;2022-11-04T09:54:52;4.32;;;2.70;;
7171;SDS011;3627;46.544;14.944;2022-11-04T09:57:22;5.00;;;2.95;;
7171;SDS011;3627;46.544;14.944;2022-11-04T09:59:49;5.18;;;3.78;;
7171;SDS011;3627;46.544;14.944;2022-11-04T10:05:03;3.75;;;2.80;;
7171;SDS011;3627;46.544;14.944;2022-11-04T10:07:48;6.90;;;4.15;;
7171;SDS011;3627;46.544;14.944;2022-11-04T10:10:17;6.00;;;3.45;;
7171;SDS011;3627;46.544;14.944;2022-11-04T10:12:47;3.90;;;3.30;;
7171;SDS011;3627;46.544;14.944;2022-11-04T10:15:24;4.28;;;3.35;;
7171;SDS011;3627;46.544;14.944;2022-11-04T10:17:58;6.47;;;3.45;;
7171;SDS011;3627;46.544;14.944;2022-11-04T10:20:34;3.88;;;3.45;;
7171;SDS011;3627;46.544;14.944;2022-11-04T10:23:06;6.93;;;4.45;;
7171;SDS011;3627;46.544;14.944;2022-11-04T10:25:39;6.70;;;4.00;;
7171;SDS011;3627;46.544;14.944;2022-11-04T10:28:07;3.40;;;2.97;;
7171;SDS011;3627;46.544;14.944;2022-11-04T10:30:37;5.82;;;4.10;;
7171;SDS011;3627;46.544;14.944;2022-11-04T10:33:07;4.05;;;3.55;;
7171;SDS011;3627;46.544;14.944;2022-11-04T10:35:37;3.67;;;3.05;;
7171;SDS011;3627;46.544;14.944;2022-11-04T10:38:15;4.00;;;3.60;;
7171;SDS011;3627;46.544;14.944;2022-11-04T10:40:43;4.85;;;3.58;;
7171;SDS011;3627;46.544;14.944;2022-11-04T10:43:12;5.35;;;3.75;;
7171;SDS011;3627;46.544;14.944;2022-11-04T10:45:41;5.60;;;4.13;;
7171;SDS011;3627;46.544;14.944;2022-11-04T10:48:10;7.47;;;4.13;;
7171;SDS011;3627;46.544;14.944;2022-11-04T10:50:40;4.85;;;3.25;;
7171;SDS011;3627;46.544;14.944;2022-11-04T10:53:10;6.15;;;4.15;;
7171;SDS011;3627;46.544;14.944;2022-11-04T10:55:40;4.22;;;3.42;;
7171;SDS011;3627;46.544;14.944;2022-11-04T10:58:10;5.47;;;3.83;;
7171;SDS011;3627;46.544;14.944;2022-11-04T11:00:38;5.82;;;3.55;;
7171;SDS011;3627;46.544;14.944;2022-11-04T11:03:20;4.25;;;3.58;;
7171;SDS011;3627;46.544;14.944;2022-11-04T11:05:48;6.40;;;3.40;;
7171;SDS011;3627;46.544;14.944;2022-11-04T11:08:25;7.63;;;3.70;;
7171;SDS011;3627;46.544;14.944;2022-11-04T11:10:52;4.57;;;3.85;;
7171;SDS011;3627;46.544;14.944;2022-11-04T11:13:23;5.22;;;3.58;;
7171;SDS011;3627;46.544;14.944;2022-11-04T11:15:49;5.95;;;3.42;;
7171;SDS011;3627;46.544;14.944;2022-11-04T11:18:28;6.38;;;4.05;;
7171;SDS011;3627;46.544;14.944;2022-11-04T11:21:04;6.18;;;4.13;;
7171;SDS011;3627;46.544;14.944;2022-11-04T11:23:33;7.43;;;3.60;;
7171;SDS011;3627;46.544;14.944;2022-11-04T11:25:59;5.22;;;3.75;;
7171;SDS011;3627;46.544;14.944;2022-11-04T11:28:26;5.63;;;3.58;;
7171;SDS011;3627;46.544;14.944;2022-11-04T11:30:54;5.20;;;4.00;;
7171;SDS011;3627;46.544;14.944;2022-11-04T11:33:22;4.90;;;3.63;;
7171;SDS011;3627;46.544;14.944;2022-11-04T11:35:49;7.38;;;4.28;;
7171;SDS011;3627;46.544;14.944;2022-11-04T11:38:20;5.75;;;3.63;;
7171;SDS011;3627;46.544;14.944;2022-11-04T11:40:47;6.55;;;3.67;;
7171;SDS011;3627;46.544;14.944;2022-11-04T11:43:20;7.03;;;4.22;;
7171;SDS011;3627;46.544;14.944;2022-11-04T11:45:47;6.10;;;3.70;;
7171;SDS011;3627;46.544;14.944;2022-11-04T11:48:26;5.93;;;3.65;;
7171;SDS011;3627;46.544;14.944;2022-11-04T11:50:52;4.95;;;3.28;;
7171;SDS011;3627;46.544;14.944;2022-11-04T11:53:22;6.95;;;3.65;;
7171;SDS011;3627;46.544;14.944;2022-11-04T11:55:50;5.82;;;3.83;;
7171;SDS011;3627;46.544;14.944;2022-11-04T11:58:23;4.68;;;3.38;;
7171;SDS011;3627;46.544;14.944;2022-11-04T12:00:53;3.92;;;3.53;;
7171;SDS011;3627;46.544;14.944;2022-11-04T12:03:21;4.05;;;3.30;;
7171;SDS011;3627;46.544;14.944;2022-11-04T12:05:56;4.35;;;3.35;;
7171;SDS011;3627;46.544;14.944;2022-11-04T12:08:31;4.65;;;3.00;;
7171;SDS011;3627;46.544;14.944;2022-11-04T12:11:00;5.70;;;3.65;;
7171;SDS011;3627;46.544;14.944;2022-11-04T12:13:29;4.50;;;3.40;;
7171;SDS011;3627;46.544;14.944;2022-11-04T12:16:07;6.00;;;3.40;;
7171;SDS011;3627;46.544;14.944;2022-11-04T12:18:55;3.63;;;3.30;;
7171;SDS011;3627;46.544;14.944;2022-11-04T12:21:27;4.65;;;3.08;;
7171;SDS011;3627;46.544;14.944;2022-11-04T12:23:59;6.65;;;3.90;;
7171;SDS011;3627;46.544;14.944;2022-11-04T12:26:32;5.53;;;3.38;;
7171;SDS011;3627;46.544;14.944;2022-11-04T12:29:05;3.38;;;2.78;;
7171;SDS011;3627;46.544;14.944;2022-11-04T12:31:37;2.60;;;2.08;;
7171;SDS011;3627;46.544;14.944;2022-11-04T12:34:09;6.63;;;2.97;;
7171;SDS011;3627;46.544;14.944;2022-11-04T12:36:49;6.05;;;2.85;;
7171;SDS011;3627;46.544;14.944;2022-11-04T12:39:21;3.25;;;2.95;;
7171;SDS011;3627;46.544;14.944;2022-11-04T12:41:56;2.88;;;2.40;;
7171;SDS011;3627;46.544;14.944;2022-11-04T12:44:26;3.05;;;2.22;;
7171;SDS011;3627;46.544;14.944;2022-11-04T12:46:55;3.00;;;2.05;;
7171;SDS011;3627;46.544;14.944;2022-11-04T12:52:17;2.85;;;2.15;;
7171;SDS011;3627;46.544;14.944;2022-11-04T12:54:52;4.13;;;2.45;;
7171;SDS011;3627;46.544;14.944;2022-11-04T12:57:25;5.05;;;2.60;;
7171;SDS011;3627;46.544;14.944;2022-11-04T13:02:39;1.35;;;1.27;;
7171;SDS011;3627;46.544;14.944;2022-11-04T13:05:08;1.75;;;1.58;;
7171;SDS011;3627;46.544;14.944;2022-11-04T13:07:45;1.40;;;1.30;;
7171;SDS011;3627;46.544;14.944;2022-11-04T13:10:16;1.30;;;1.30;;
7171;SDS011;3627;46.544;14.944;2022-11-04T13:12:44;1.00;;;1.00;;
7171;SDS011;3627;46.544;14.944;2022-11-04T13:15:13;1.40;;;1.30;;
7171;SDS011;3627;46.544;14.944;2022-11-04T13:17:40;1.15;;;1.15;;
7171;SDS011;3627;46.544;14.944;2022-11-04T13:20:12;1.17;;;1.17;;
7171;SDS011;3627;46.544;14.944;2022-11-04T13:22:40;1.65;;;1.52;;
7171;SDS011;3627;46.544;14.944;2022-11-04T13:25:11;2.80;;;1.50;;
7171;SDS011;3627;46.544;14.944;2022-11-04T13:27:41;2.60;;;1.42;;
7171;SDS011;3627;46.544;14.944;2022-11-04T13:30:15;1.60;;;1.50;;
7171;SDS011;3627;46.544;14.944;2022-11-04T13:32:46;2.35;;;1.50;;
7171;SDS011;3627;46.544;14.944;2022-11-04T13:35:15;2.40;;;1.70;;
7171;SDS011;3627;46.544;14.944;2022-11-04T13:37:46;1.38;;;1.30;;
7171;SDS011;3627;46.544;14.944;2022-11-04T13:40:15;3.15;;;1.80;;
7171;SDS011;3627;46.544;14.944;2022-11-04T13:43:07;3.70;;;1.50;;
7171;SDS011;3627;46.544;14.944;2022-11-04T13:45:54;1.35;;;1.30;;
7171;SDS011;3627;46.544;14.944;2022-11-04T13:48:21;1.65;;;1.55;;
7171;SDS011;3627;46.544;14.944;2022-11-04T13:50:53;1.50;;;1.25;;
7171;SDS011;3627;46.544;14.944;2022-11-04T13:53:21;1.45;;;1.20;;
7171;SDS011;3627;46.544;14.944;2022-11-04T13:56:04;1.52;;;1.42;;
7171;SDS011;3627;46.544;14.944;2022-11-04T13:58:33;1.52;;;1.42;;
7171;SDS011;3627;46.544;14.944;2022-11-04T14:01:09;2.15;;;1.73;;
7171;SDS011;3627;46.544;14.944;2022-11-04T14:03:49;2.03;;;1.75;;
7171;SDS011;3627;46.544;14.944;2022-11-04T14:06:16;1.63;;;1.52;;
7171;SDS011;3627;46.544;14.944;2022-11-04T14:11:24;3.58;;;2.00;;
7171;SDS011;3627;46.544;14.944;2022-11-04T14:16:45;3.13;;;1.80;;
7171;SDS011;3627;46.544;14.944;2022-11-04T14:22:03;1.48;;;1.38;;
7171;SDS011;3627;46.544;14.944;2022-11-04T14:24:30;2.03;;;1.67;;
7171;SDS011;3627;46.544;14.944;2022-11-04T14:26:57;2.10;;;2.00;;
7171;SDS011;3627;46.544;14.944;2022-11-04T14:29:24;1.38;;;1.27;;
7171;SDS011;3627;46.544;14.944;2022-11-04T14:31:53;1.48;;;1.40;;
7171;SDS011;3627;46.544;14.944;2022-11-04T14:34:24;1.20;;;1.20;;
7171;SDS011;3627;46.544;14.944;2022-11-04T14:36:53;2.05;;;1.48;;
7171;SDS011;3627;46.544;14.944;2022-11-04T14:39:21;2.70;;;1.42;;
7171;SDS011;3627;46.544;14.944;2022-11-04T14:41:50;1.67;;;1.58;;
7171;SDS011;3627;46.544;14.944;2022-11-04T14:44:18;1.65;;;1.50;;
7171;SDS011;3627;46.544;14.944;2022-11-04T14:46:47;1.88;;;1.60;;
7171;SDS011;3627;46.544;14.944;2022-11-04T14:49:23;1.50;;;1.40;;
7171;SDS011;3627;46.544;14.944;2022-11-04T14:51:53;1.92;;;1.60;;
7171;SDS011;3627;46.544;14.944;2022-11-04T14:54:20;1.50;;;1.40;;
7171;SDS011;3627;46.544;14.944;2022-11-04T14:56:49;1.65;;;1.55;;
7171;SDS011;3627;46.544;14.944;2022-11-04T14:59:19;1.65;;;1.52;;
7171;SDS011;3627;46.544;14.944;2022-11-04T15:01:46;1.13;;;1.13;;
7171;SDS011;3627;46.544;14.944;2022-11-04T15:04:15;1.50;;;1.40;;
7171;SDS011;3627;46.544;14.944;2022-11-04T15:06:45;1.38;;;1.27;;
7171;SDS011;3627;46.544;14.944;2022-11-04T15:09:19;2.25;;;1.30;;
7171;SDS011;3627;46.544;14.944;2022-11-04T15:11:46;3.90;;;2.55;;
7171;SDS011;3627;46.544;14.944;2022-11-04T15:14:30;3.28;;;2.70;;
7171;SDS011;3627;46.544;14.944;2022-11-04T15:16:56;4.75;;;2.13;;
7171;SDS011;3627;46.544;14.944;2022-11-04T15:19:26;3.00;;;2.80;;
7171;SDS011;3627;46.544;14.944;2022-11-04T15:21:54;4.47;;;3.90;;
7171;SDS011;3627;46.544;14.944;2022-11-04T15:24:21;9.10;;;7.50;;
7171;SDS011;3627;46.544;14.944;2022-11-04T15:26:48;2.85;;;2.60;;
7171;SDS011;3627;46.544;14.944;2022-11-04T15:29:14;3.40;;;2.92;;
7171;SDS011;3627;46.544;14.944;2022-11-04T15:31:49;2.10;;;2.00;;
7171;SDS011;3627;46.544;14.944;2022-11-04T15:34:16;2.22;;;2.05;;